Time;durP1;ratioP1;P1;durP2;ratioP2;P2;SDS_P1;SDS_P2;PMS_P1;PMS_P2;Temp;Humidity;BMP_temperature;BMP_pressure;BME280_temperature;BME280_humidity;BME280_pressure;Samples;Min_cycle;Max_cycle;Signal;HPM_P1;HPM_P2
2022/03/27 00:01:40;;;;;;;20.00;8.77;;;7.60;99.90;;;;;;4963384;28;20100;-87
2022/03/27 00:04:06;;;;;;;17.02;9.05;;;7.70;99.90;;;;;;4963198;28;20042;-87
2022/03/27 00:06:31;;;;;;;17.33;8.63;;;7.70;99.90;;;;;;4995581;28;20026;-88
2022/03/27 00:08:57;;;;;;;22.58;10.02;;;7.70;99.90;;;;;;4962878;28;20080;-88
2022/03/27 00:11:26;;;;;;;22.42;10.05;;;7.60;99.90;;;;;;4979314;28;20041;-87
2022/03/27 00:14:05;;;;;;;17.45;9.35;;;7.50;99.90;;;;;;4978803;28;20037;-87
2022/03/27 00:16:33;;;;;;;21.35;9.32;;;7.50;99.90;;;;;;4978799;28;20470;-87
2022/03/27 00:18:59;;;;;;;16.48;9.23;;;7.50;99.90;;;;;;4994772;28;20034;-88
2022/03/27 00:21:26;;;;;;;22.05;9.35;;;7.50;99.90;;;;;;4963101;28;20041;-87
2022/03/27 00:23:52;;;;;;;19.98;9.77;;;7.50;99.90;;;;;;4979021;28;20049;-87
2022/03/27 00:26:20;;;;;;;18.25;10.23;;;7.40;99.90;;;;;;4978946;28;20094;-87
2022/03/27 00:28:46;;;;;;;19.80;9.70;;;7.30;99.90;;;;;;4962113;28;20026;-88
2022/03/27 00:31:12;;;;;;;19.67;9.85;;;7.20;99.90;;;;;;4962282;28;20637;-88
2022/03/27 00:33:39;;;;;;;23.80;9.25;;;7.20;99.90;;;;;;4994887;28;20023;-87
2022/03/27 00:36:07;;;;;;;23.17;9.55;;;7.30;99.90;;;;;;4962305;28;20034;-87
2022/03/27 00:38:33;;;;;;;18.38;9.43;;;7.20;99.90;;;;;;4961898;28;20184;-87
2022/03/27 00:40:59;;;;;;;17.00;10.13;;;7.20;99.90;;;;;;4994895;28;20497;-87
2022/03/27 00:43:26;;;;;;;20.77;9.95;;;7.20;99.90;;;;;;4962464;28;20034;-87
2022/03/27 00:45:52;;;;;;;23.85;10.68;;;7.20;99.90;;;;;;4994875;28;20062;-87
2022/03/27 00:48:19;;;;;;;21.98;9.85;;;7.20;99.90;;;;;;4978347;28;20494;-87
2022/03/27 00:50:47;;;;;;;24.08;9.88;;;7.10;99.90;;;;;;4962301;28;20467;-87
2022/03/27 00:53:12;;;;;;;23.88;10.10;;;7.10;99.90;;;;;;4962257;28;20118;-87
2022/03/27 00:55:39;;;;;;;20.65;10.38;;;7.10;99.90;;;;;;4961890;28;20113;-87
2022/03/27 00:58:05;;;;;;;25.90;10.32;;;7.10;99.90;;;;;;4977477;28;20034;-87
2022/03/27 01:00:42;;;;;;;18.02;8.35;;;7.10;99.90;;;;;;4995643;28;20030;-87
2022/03/27 01:03:11;;;;;;;27.05;10.45;;;7.20;99.90;;;;;;4961669;28;20034;-87
2022/03/27 01:05:38;;;;;;;22.30;9.88;;;7.20;99.90;;;;;;4961219;28;20027;-88
2022/03/27 01:08:09;;;;;;;18.00;9.65;;;7.20;99.90;;;;;;4961501;28;20026;-87
2022/03/27 01:10:35;;;;;;;;;;;7.10;99.90;;;;;;4962574;28;20121;-88
2022/03/27 01:13:14;;;;;;;20.40;9.77;;;7.10;99.90;;;;;;4977970;28;19913;-88
2022/03/27 01:15:55;;;;;;;24.10;9.48;;;7.10;99.90;;;;;;4994423;28;20134;-87
2022/03/27 01:18:22;;;;;;;24.38;11.02;;;7.00;99.90;;;;;;4993776;28;20438;-88
2022/03/27 01:20:48;;;;;;;20.17;10.07;;;6.90;99.90;;;;;;4961175;28;20038;-87
2022/03/27 01:23:14;;;;;;;24.40;10.93;;;6.90;99.90;;;;;;4993995;28;20093;-88
2022/03/27 01:25:43;;;;;;;20.67;10.57;;;6.90;99.90;;;;;;4961321;28;20030;-88
2022/03/27 01:28:11;;;;;;;20.58;10.95;;;6.90;99.90;;;;;;4961396;28;20064;-87
2022/03/27 01:30:37;;;;;;;21.52;10.20;;;6.80;99.90;;;;;;4961547;28;20129;-87
2022/03/27 01:33:05;;;;;;;23.55;11.57;;;6.80;99.90;;;;;;4977722;28;20026;-88
2022/03/27 01:35:31;;;;;;;23.98;10.23;;;6.70;99.90;;;;;;4993779;28;20431;-87
2022/03/27 01:37:57;;;;;;;22.30;11.02;;;6.70;99.90;;;;;;4960448;28;20045;-88
2022/03/27 01:40:23;;;;;;;20.58;10.30;;;6.60;99.90;;;;;;4961666;28;20054;-87
2022/03/27 01:42:49;;;;;;;21.20;11.38;;;6.50;99.90;;;;;;4977420;28;20101;-88
2022/03/27 01:45:16;;;;;;;22.60;11.48;;;6.50;99.90;;;;;;4961512;28;20056;-87
2022/03/27 01:47:41;;;;;;;21.95;11.25;;;6.50;99.90;;;;;;4977111;28;20027;-88
2022/03/27 01:50:08;;;;;;;25.02;11.07;;;6.50;99.90;;;;;;4961073;28;20049;-87
2022/03/27 01:52:34;;;;;;;25.23;11.73;;;6.50;99.90;;;;;;4961416;28;20069;-88
2022/03/27 01:55:00;;;;;;;19.60;11.23;;;6.50;99.90;;;;;;4961036;28;20034;-88
2022/03/27 01:57:25;;;;;;;26.45;12.43;;;6.50;99.90;;;;;;4993045;28;20383;-87
2022/03/27 01:59:51;;;;;;;23.05;10.77;;;6.50;99.90;;;;;;4960877;28;20041;-87
2022/03/27 02:02:23;;;;;;;30.05;13.40;;;6.60;99.90;;;;;;4993139;28;20104;-88
2022/03/27 02:04:50;;;;;;;26.77;11.95;;;6.70;99.90;;;;;;4960944;28;20030;-87
2022/03/27 02:07:17;;;;;;;25.98;12.43;;;6.70;99.90;;;;;;4994097;28;20073;-88
2022/03/27 02:09:42;;;;;;;21.83;11.95;;;6.70;99.90;;;;;;4977199;28;20113;-87
2022/03/27 02:12:08;;;;;;;27.20;12.68;;;6.80;99.90;;;;;;4993118;28;20871;-87
2022/03/27 02:14:34;;;;;;;27.35;12.73;;;6.80;99.90;;;;;;4993962;28;20035;-87
2022/03/27 02:17:00;;;;;;;28.98;12.55;;;6.80;99.90;;;;;;4959729;28;20036;-87
2022/03/27 02:19:25;;;;;;;27.45;12.50;;;6.80;99.90;;;;;;4976678;28;20034;-87
2022/03/27 02:21:51;;;;;;;29.50;13.88;;;6.80;99.90;;;;;;4993781;28;20037;-88
2022/03/27 02:24:17;;;;;;;25.15;14.15;;;6.70;99.90;;;;;;4960529;28;20140;-87
2022/03/27 02:26:47;;;;;;;25.45;12.80;;;6.70;99.90;;;;;;4992341;28;20532;-87
2022/03/27 02:29:17;;;;;;;27.20;14.27;;;6.60;99.90;;;;;;4977055;28;20106;-88
2022/03/27 02:31:43;;;;;;;30.15;14.25;;;6.50;99.90;;;;;;4960299;28;20077;-88
2022/03/27 02:34:10;;;;;;;27.33;13.95;;;6.50;99.90;;;;;;4992533;28;20033;-87
2022/03/27 02:36:35;;;;;;;27.48;13.88;;;6.50;99.90;;;;;;4960389;28;20030;-87
2022/03/27 02:39:02;;;;;;;30.58;15.07;;;6.50;99.90;;;;;;4960201;28;20489;-87
2022/03/27 02:41:28;;;;;;;29.88;14.10;;;6.40;99.90;;;;;;4992597;28;20072;-87
2022/03/27 02:44:00;;;;;;;32.70;14.70;;;6.40;99.90;;;;;;4960116;28;20541;-88
2022/03/27 02:46:25;;;;;;;31.98;14.60;;;6.30;99.90;;;;;;4960252;28;20322;-87
2022/03/27 02:48:51;;;;;;;31.98;15.77;;;6.30;99.90;;;;;;4991964;28;20022;-87
2022/03/27 02:51:17;;;;;;;28.30;15.43;;;6.30;99.90;;;;;;4959944;28;20026;-87
2022/03/27 02:53:42;;;;;;;31.35;16.00;;;6.20;99.90;;;;;;4992357;28;20022;-87
2022/03/27 02:56:09;;;;;;;28.20;15.02;;;6.20;99.90;;;;;;4992443;28;20041;-87
2022/03/27 02:58:35;;;;;;;32.78;16.23;;;6.20;99.90;;;;;;4992079;28;20587;-87
2022/03/27 03:01:02;;;;;;;42.05;16.83;;;6.20;99.90;;;;;;4993801;28;20144;-87
2022/03/27 03:03:28;;;;;;;32.88;15.85;;;6.20;99.90;;;;;;4959708;28;20044;-88
2022/03/27 03:05:54;;;;;;;29.70;16.05;;;6.10;99.90;;;;;;4960007;28;20026;-87
2022/03/27 03:08:20;;;;;;;32.13;15.70;;;6.10;99.90;;;;;;4959871;28;20030;-87
2022/03/27 03:10:46;;;;;;;34.60;16.45;;;6.00;99.90;;;;;;4993458;28;20053;-87
2022/03/27 03:13:12;;;;;;;32.10;15.13;;;6.00;99.90;;;;;;4960143;28;20030;-87
2022/03/27 03:15:40;;;;;;;33.35;17.17;;;6.10;99.90;;;;;;4992706;28;20386;-87
2022/03/27 03:18:09;;;;;;;32.60;15.68;;;6.10;99.90;;;;;;4959809;28;20109;-88
2022/03/27 03:20:35;;;;;;;33.78;15.18;;;6.00;99.90;;;;;;4976719;28;20034;-87
2022/03/27 03:23:00;;;;;;;29.55;15.85;;;5.90;99.90;;;;;;4959928;28;20039;-88
2022/03/27 03:25:26;;;;;;;37.00;16.55;;;5.90;99.90;;;;;;4991881;28;20410;-87
2022/03/27 03:27:52;;;;;;;27.67;14.23;;;5.90;99.90;;;;;;4959079;28;20037;-87
2022/03/27 03:30:18;;;;;;;32.28;15.63;;;5.90;99.90;;;;;;4961458;28;20022;-87
2022/03/27 03:32:44;;;;;;;32.28;16.13;;;5.90;99.90;;;;;;4979855;28;20041;-87
2022/03/27 03:35:19;;;;;;;30.63;15.32;;;5.90;99.90;;;;;;4963629;28;20041;-87
2022/03/27 03:37:45;;;;;;;33.00;15.38;;;5.90;99.90;;;;;;4963355;28;20034;-87
2022/03/27 03:40:11;;;;;;;34.17;15.88;;;6.00;99.90;;;;;;4995899;28;20392;-87
2022/03/27 03:42:37;;;;;;;30.05;15.55;;;6.00;99.90;;;;;;4963706;28;20042;-87
2022/03/27 03:45:04;;;;;;;32.00;15.43;;;6.00;99.90;;;;;;4995622;28;20029;-86
2022/03/27 03:47:30;;;;;;;36.42;16.67;;;5.90;99.90;;;;;;4995080;28;20031;-87
2022/03/27 03:49:56;;;;;;;35.28;17.08;;;5.80;99.90;;;;;;4995395;28;20030;-87
2022/03/27 03:52:21;;;;;;;31.25;16.40;;;5.70;99.90;;;;;;4979149;28;20052;-87
2022/03/27 03:54:47;;;;;;;38.72;15.90;;;5.60;99.90;;;;;;4979384;28;20525;-87
2022/03/27 03:57:13;;;;;;;33.60;16.13;;;5.50;99.90;;;;;;4962870;28;20038;-87
2022/03/27 03:59:39;;;;;;;35.33;17.10;;;5.50;99.90;;;;;;4963171;28;20134;-87
2022/03/27 04:02:06;;;;;;;31.15;18.02;;;5.50;99.90;;;;;;4963232;28;20054;-87
2022/03/27 04:04:33;;;;;;;36.78;17.65;;;5.40;99.90;;;;;;4995165;28;20030;-87
2022/03/27 04:06:59;;;;;;;30.95;15.20;;;5.40;99.90;;;;;;4962965;28;20034;-87
2022/03/27 04:09:25;;;;;;;34.72;17.33;;;5.40;99.90;;;;;;4962769;28;20129;-88
2022/03/27 04:12:01;;;;;;;34.58;16.52;;;5.40;99.90;;;;;;4978405;28;20030;-87
2022/03/27 04:14:29;;;;;;;34.15;17.67;;;5.50;99.90;;;;;;4962982;28;20099;-87
2022/03/27 04:16:57;;;;;;;32.15;17.00;;;5.50;99.90;;;;;;4979050;28;20026;-87
2022/03/27 04:19:24;;;;;;;35.13;16.70;;;5.50;99.90;;;;;;4994857;28;20037;-87
2022/03/27 04:21:49;;;;;;;28.92;16.15;;;5.50;99.90;;;;;;4978791;28;20640;-87
2022/03/27 04:24:15;;;;;;;30.70;15.57;;;5.50;99.90;;;;;;4994977;28;20015;-87
2022/03/27 04:26:41;;;;;;;33.78;17.30;;;5.50;99.90;;;;;;4962342;28;20035;-87
2022/03/27 04:29:07;;;;;;;35.85;16.30;;;5.50;99.90;;;;;;4962875;28;20493;-86
2022/03/27 04:31:33;;;;;;;37.47;15.95;;;5.50;99.90;;;;;;4962325;28;20030;-87
2022/03/27 04:33:59;;;;;;;34.85;16.70;;;5.50;99.90;;;;;;4962463;28;20045;-87
2022/03/27 04:36:25;;;;;;;29.63;15.48;;;5.50;99.90;;;;;;4994732;28;20113;-87
2022/03/27 04:38:51;;;;;;;37.35;17.20;;;5.40;99.90;;;;;;4977910;28;20038;-87
2022/03/27 04:41:17;;;;;;;36.13;17.40;;;5.40;99.90;;;;;;4977946;28;20093;-87
2022/03/27 04:43:48;;;;;;;37.90;17.63;;;5.30;99.90;;;;;;4962250;28;20371;-87
2022/03/27 04:46:14;;;;;;;34.57;17.83;;;5.30;99.90;;;;;;4978190;28;20511;-87
2022/03/27 04:48:40;;;;;;;30.85;16.30;;;5.20;99.90;;;;;;4993732;28;20772;-87
2022/03/27 04:51:06;;;;;;;32.03;16.63;;;5.20;99.90;;;;;;4993557;28;20092;-87
2022/03/27 04:53:32;;;;;;;38.90;17.13;;;5.10;99.90;;;;;;4978281;28;20035;-88
2022/03/27 04:55:57;;;;;;;32.70;16.73;;;5.20;99.90;;;;;;4977981;28;20030;-87
2022/03/27 04:58:24;;;;;;;35.05;17.10;;;5.20;99.90;;;;;;4961374;28;20042;-87
2022/03/27 05:00:49;;;;;;;32.97;17.23;;;5.20;99.90;;;;;;4961659;28;20034;-86
2022/03/27 05:03:15;;;;;;;33.95;17.30;;;5.20;99.90;;;;;;4977826;28;20026;-87
2022/03/27 05:05:41;;;;;;;30.95;16.33;;;5.30;99.90;;;;;;4961629;28;20030;-87
2022/03/27 05:08:07;;;;;;;28.15;15.70;;;5.30;99.90;;;;;;4961683;28;20034;-86
2022/03/27 05:10:34;;;;;;;32.08;16.85;;;5.30;99.90;;;;;;4962023;28;20084;-87
2022/03/27 05:13:00;;;;;;;33.13;17.35;;;5.30;99.90;;;;;;4961936;28;20031;-86
2022/03/27 05:15:27;;;;;;;29.58;16.17;;;5.30;99.90;;;;;;4961626;28;20042;-83
2022/03/27 05:17:58;;;;;;;38.92;17.23;;;5.20;99.90;;;;;;4961095;28;20068;-84
2022/03/27 05:20:29;;;;;;;31.90;16.80;;;5.20;99.90;;;;;;4960952;28;20038;-84
2022/03/27 05:23:02;;;;;;;36.08;17.67;;;5.30;99.90;;;;;;4960892;28;20142;-83
2022/03/27 05:25:28;;;;;;;33.65;16.73;;;5.30;99.90;;;;;;4993377;28;20038;-84
2022/03/27 05:27:56;;;;;;;33.72;16.10;;;5.40;99.90;;;;;;4992711;28;20080;-83
2022/03/27 05:30:23;;;;;;;34.15;16.55;;;5.40;99.90;;;;;;4992772;28;20401;-83
2022/03/27 05:32:50;;;;;;;33.92;16.20;;;5.40;99.90;;;;;;4976502;28;20435;-84
2022/03/27 05:35:17;;;;;;;29.67;15.82;;;5.40;99.90;;;;;;4976898;28;20105;-84
2022/03/27 05:37:44;;;;;;;31.52;16.45;;;5.50;99.90;;;;;;4960288;28;20045;-83
2022/03/27 05:40:13;;;;;;;30.77;16.60;;;5.40;99.90;;;;;;4992858;28;20045;-84
2022/03/27 05:42:39;;;;;;;37.20;15.55;;;5.50;99.90;;;;;;4960433;28;20390;-83
2022/03/27 05:45:07;;;;;;;36.60;16.58;;;5.50;99.90;;;;;;4992775;28;20065;-83
2022/03/27 05:47:34;;;;;;;34.08;17.08;;;5.50;99.90;;;;;;4960565;28;20033;-84
2022/03/27 05:50:00;;;;;;;40.35;16.25;;;5.60;99.90;;;;;;4960463;28;20034;-83
2022/03/27 05:52:26;;;;;;;42.85;16.90;;;5.60;99.90;;;;;;4960242;28;20656;-84
2022/03/27 05:54:52;;;;;;;31.80;16.17;;;5.60;99.90;;;;;;4960737;28;20125;-84
2022/03/27 05:57:18;;;;;;;33.80;16.88;;;5.70;99.90;;;;;;4960051;28;20389;-84
2022/03/27 05:59:45;;;;;;;30.33;15.88;;;5.80;99.90;;;;;;4959881;28;20038;-83
2022/03/27 06:02:12;;;;;;;38.83;16.92;;;5.90;99.90;;;;;;4959682;28;20037;-84
2022/03/27 06:04:39;;;;;;;39.60;17.67;;;5.90;99.90;;;;;;4991883;28;20038;-83
2022/03/27 06:07:05;;;;;;;33.15;15.70;;;6.00;99.90;;;;;;4959164;28;20430;-84
2022/03/27 06:09:30;;;;;;;41.35;17.77;;;6.10;99.90;;;;;;4958949;28;20085;-84
2022/03/27 06:11:56;;;;;;;40.47;18.52;;;6.10;99.90;;;;;;4975516;28;20037;-84
2022/03/27 06:14:22;;;;;;;40.38;17.55;;;6.20;99.90;;;;;;4991709;28;20449;-83
2022/03/27 06:16:48;;;;;;;38.58;17.67;;;6.30;99.90;;;;;;4958496;28;20030;-83
2022/03/27 06:19:14;;;;;;;38.45;17.50;;;6.40;99.90;;;;;;4991178;28;20030;-83
2022/03/27 06:21:39;;;;;;;32.15;15.80;;;6.50;99.90;;;;;;4959175;28;20545;-84
2022/03/27 06:24:06;;;;;;;37.33;18.35;;;6.60;99.90;;;;;;4958945;28;20026;-85
2022/03/27 06:26:31;;;;;;;39.35;17.73;;;6.70;99.90;;;;;;4992115;28;20038;-84
2022/03/27 06:28:57;;;;;;;40.25;17.10;;;6.70;99.90;;;;;;4974865;28;20080;-84
2022/03/27 06:31:23;;;;;;;33.40;16.52;;;6.80;99.90;;;;;;4991357;28;20033;-84
2022/03/27 06:33:49;;;;;;;34.47;16.80;;;7.00;99.90;;;;;;4959088;28;20022;-84
2022/03/27 06:36:14;;;;;;;37.08;17.73;;;7.10;99.90;;;;;;4976867;28;20034;-84
2022/03/27 06:38:40;;;;;;;33.47;16.55;;;7.20;99.90;;;;;;4958787;28;20026;-83
2022/03/27 06:41:37;;;;;;;34.63;16.25;;;7.40;99.90;;;;;;4958940;28;20034;-83
2022/03/27 06:44:03;;;;;;;32.00;16.75;;;7.50;99.90;;;;;;4958883;28;20481;-83
2022/03/27 06:46:29;;;;;;;35.05;16.60;;;7.70;99.90;;;;;;4991134;28;20042;-84
2022/03/27 06:48:55;;;;;;;29.25;15.98;;;7.80;99.90;;;;;;4958475;28;20060;-84
2022/03/27 06:51:21;;;;;;;26.67;14.90;;;8.00;99.90;;;;;;4959432;28;20125;-83
2022/03/27 06:53:47;;;;;;;29.42;15.77;;;8.10;99.90;;;;;;4959562;28;20121;-83
2022/03/27 06:58:53;;;;;;;36.00;16.52;;;8.10;99.90;;;;;;5081550;27;20810;-83
2022/03/27 07:04:03;;;;;;;36.33;16.50;;;8.50;99.90;;;;;;5087907;28;20038;-84
2022/03/27 07:06:29;;;;;;;36.45;15.85;;;8.50;99.90;;;;;;5088107;28;20032;-83
2022/03/27 07:08:55;;;;;;;30.35;15.15;;;8.70;99.90;;;;;;5087636;28;20388;-84
2022/03/27 07:11:21;;;;;;;32.03;15.38;;;8.90;99.90;;;;;;5087868;28;20024;-84
2022/03/27 07:13:46;;;;;;;33.65;14.93;;;9.00;99.90;;;;;;5088231;28;20040;-85
2022/03/27 07:16:13;;;;;;;31.10;15.80;;;9.10;99.90;;;;;;5088023;28;20108;-84
2022/03/27 07:18:39;;;;;;;32.83;15.70;;;9.20;99.90;;;;;;5087642;28;20059;-85
2022/03/27 07:21:05;;;;;;;32.83;15.65;;;9.30;99.90;;;;;;5087639;28;20075;-85
2022/03/27 07:23:30;;;;;;;32.95;15.98;;;9.50;99.90;;;;;;5086644;28;20036;-84
2022/03/27 07:25:57;;;;;;;29.85;14.98;;;9.70;99.90;;;;;;5087884;28;20056;-85
2022/03/27 07:28:25;;;;;;;38.45;15.85;;;9.90;99.90;;;;;;5087159;28;20036;-84
2022/03/27 07:30:51;;;;;;;36.90;16.08;;;10.10;99.90;;;;;;5087839;28;20085;-85
2022/03/27 07:33:17;;;;;;;33.65;14.77;;;10.20;99.90;;;;;;5088142;28;20036;-84
2022/03/27 07:35:44;;;;;;;32.05;16.35;;;10.20;99.90;;;;;;5088092;28;20063;-85
2022/03/27 07:38:10;;;;;;;30.27;15.77;;;10.30;99.90;;;;;;5087667;28;20029;-84
2022/03/27 07:40:36;;;;;;;31.80;15.65;;;10.30;99.90;;;;;;5088161;28;20032;-84
2022/03/27 07:43:02;;;;;;;31.17;16.40;;;10.30;99.90;;;;;;5088034;28;20028;-84
2022/03/27 07:45:31;;;;;;;36.15;16.33;;;10.50;99.90;;;;;;5088206;28;20047;-85
2022/03/27 07:47:57;;;;;;;35.47;16.15;;;10.60;99.90;;;;;;5087423;28;20032;-83
2022/03/27 07:50:24;;;;;;;32.80;16.30;;;10.60;99.90;;;;;;5087582;28;20503;-83
2022/03/27 07:52:50;;;;;;;33.60;17.13;;;10.60;99.90;;;;;;5087535;28;20028;-83
2022/03/27 07:55:17;;;;;;;38.47;16.92;;;10.70;99.90;;;;;;5087319;28;20483;-83
2022/03/27 07:57:44;;;;;;;35.33;17.38;;;10.90;99.90;;;;;;5086778;28;20038;-83
2022/03/27 08:00:11;;;;;;;30.55;17.05;;;11.00;99.90;;;;;;5087438;28;20028;-83
2022/03/27 08:02:41;;;;;;;31.95;17.33;;;11.00;99.90;;;;;;5088125;28;20055;-84
2022/03/27 08:05:08;;;;;;;36.00;16.77;;;11.10;99.90;;;;;;5087629;28;20024;-84
2022/03/27 08:07:34;;;;;;;32.00;18.40;;;11.10;99.90;;;;;;5086762;28;20028;-85
2022/03/27 08:10:00;;;;;;;31.20;17.00;;;11.20;99.90;;;;;;5075701;28;20511;-84
2022/03/27 08:12:27;;;;;;;35.35;17.52;;;11.40;99.90;;;;;;5074210;28;20033;-83
2022/03/27 08:14:53;;;;;;;33.47;16.50;;;11.50;99.90;;;;;;5074021;28;20067;-84
2022/03/27 08:17:21;;;;;;;28.90;17.58;;;11.70;99.90;;;;;;5073550;28;20479;-84
2022/03/27 08:19:49;;;;;;;29.75;17.50;;;11.80;99.90;;;;;;5074191;28;20056;-84
2022/03/27 08:22:15;;;;;;;31.17;16.75;;;11.80;99.90;;;;;;5074196;28;20037;-84
2022/03/27 08:24:41;;;;;;;40.08;16.80;;;12.00;99.90;;;;;;5073866;28;20086;-84
2022/03/27 08:27:08;;;;;;;33.15;17.33;;;12.10;99.90;;;;;;5073280;28;20032;-84
2022/03/27 08:29:36;;;;;;;30.45;17.27;;;12.10;99.90;;;;;;5074226;28;20091;-84
2022/03/27 08:32:05;;;;;;;30.02;16.88;;;12.10;99.90;;;;;;5073936;28;20028;-84
2022/03/27 08:34:32;;;;;;;33.55;17.13;;;12.10;99.90;;;;;;5073168;28;20059;-85
2022/03/27 08:37:01;;;;;;;32.63;17.10;;;12.20;99.90;;;;;;5074446;28;20032;-84
2022/03/27 08:39:27;;;;;;;34.83;18.17;;;12.20;99.90;;;;;;5073596;28;20039;-84
2022/03/27 08:41:54;;;;;;;34.80;18.38;;;12.30;99.90;;;;;;5073373;28;20051;-84
2022/03/27 08:44:27;;;;;;;33.20;17.80;;;12.40;99.90;;;;;;5073059;28;20571;-84
2022/03/27 08:46:55;;;;;;;31.88;17.85;;;12.60;99.90;;;;;;5073331;28;20037;-84
2022/03/27 08:49:32;;;;;;;26.23;14.95;;;12.80;99.90;;;;;;5073528;28;20076;-85
2022/03/27 08:52:03;;;;;;;26.00;14.73;;;14.00;99.90;;;;;;5073843;28;20032;-84
2022/03/27 08:54:43;;;;;;;20.10;12.83;;;15.40;99.90;;;;;;5073767;28;20834;-85
2022/03/27 08:57:26;;;;;;;21.95;13.07;;;16.80;99.90;;;;;;5072782;28;20043;-84
2022/03/27 08:59:53;;;;;;;27.42;12.73;;;17.60;99.90;;;;;;5072829;28;20093;-85
2022/03/27 09:02:22;;;;;;;20.52;12.73;;;17.70;99.90;;;;;;5072745;28;20024;-85
2022/03/27 09:04:53;;;;;;;17.52;12.73;;;17.60;99.90;;;;;;5072934;28;20035;-85
2022/03/27 09:07:23;;;;;;;24.20;12.55;;;18.00;99.90;;;;;;5072742;28;20024;-85
2022/03/27 09:09:49;;;;;;;21.52;13.00;;;18.20;98.70;;;;;;5072532;28;20043;-85
2022/03/27 09:12:17;;;;;;;20.20;12.40;;;18.90;97.80;;;;;;5072569;28;20040;-85
2022/03/27 09:14:43;;;;;;;19.30;12.20;;;19.50;95.60;;;;;;5072541;28;20825;-85
2022/03/27 09:17:09;;;;;;;25.67;13.75;;;19.70;94.60;;;;;;5072353;28;20043;-84
2022/03/27 09:19:36;;;;;;;22.20;12.38;;;19.50;93.60;;;;;;5072257;28;20029;-85
2022/03/27 09:22:29;;;;;;;18.85;11.88;;;19.20;93.40;;;;;;5071250;28;20060;-85
2022/03/27 09:25:01;;;;;;;18.58;10.70;;;19.10;92.70;;;;;;5072586;28;20082;-85
2022/03/27 09:27:36;;;;;;;23.08;12.45;;;18.60;93.50;;;;;;5070982;28;20035;-84
2022/03/27 09:30:11;;;;;;;24.38;14.18;;;17.80;95.30;;;;;;5072086;28;20375;-84
2022/03/27 09:32:41;;;;;;;20.25;13.27;;;16.90;96.20;;;;;;5072152;28;20047;-84
2022/03/27 09:35:12;;;;;;;23.77;13.15;;;16.50;97.30;;;;;;5072431;28;20487;-84
2022/03/27 09:37:43;;;;;;;19.88;12.63;;;16.90;98.20;;;;;;5072001;28;20035;-84
2022/03/27 09:40:11;;;;;;;19.02;11.20;;;16.90;98.20;;;;;;5072288;28;20028;-85
2022/03/27 09:42:38;;;;;;;16.88;11.27;;;17.20;97.40;;;;;;5072120;28;20441;-84
2022/03/27 09:45:11;;;;;;;16.63;10.27;;;17.30;97.10;;;;;;5071812;28;20402;-84
2022/03/27 09:47:37;;;;;;;19.48;12.50;;;17.40;95.80;;;;;;5071625;28;20040;-84
2022/03/27 09:50:03;;;;;;;23.08;10.57;;;17.80;96.60;;;;;;5071981;28;20025;-84
2022/03/27 09:52:29;;;;;;;18.60;11.05;;;18.40;95.10;;;;;;5071686;28;20032;-84
2022/03/27 09:54:56;;;;;;;16.83;10.23;;;18.50;95.10;;;;;;5070871;28;20063;-85
2022/03/27 09:57:23;;;;;;;17.70;9.70;;;19.10;95.20;;;;;;5070503;28;20029;-85
2022/03/27 09:59:49;;;;;;;17.65;10.77;;;19.70;93.00;;;;;;5071568;28;20028;-85
2022/03/27 10:02:27;;;;;;;16.45;10.00;;;20.40;91.90;;;;;;5071436;28;20024;-83
2022/03/27 10:05:05;;;;;;;19.48;10.68;;;21.00;88.30;;;;;;5071009;28;20676;-82
2022/03/27 10:07:50;;;;;;;16.08;10.15;;;21.20;86.50;;;;;;5071306;28;20131;-85
2022/03/27 10:10:18;;;;;;;14.98;10.27;;;20.80;85.50;;;;;;5071762;28;20032;-84
2022/03/27 10:13:06;;;;;;;12.93;8.80;;;19.70;87.50;;;;;;5073196;28;20108;-84
2022/03/27 10:15:32;;;;;;;14.98;9.63;;;19.50;89.00;;;;;;5088319;28;20063;-84
2022/03/27 10:18:05;;;;;;;17.00;11.18;;;19.40;87.80;;;;;;5070670;28;20064;-84
2022/03/27 10:20:35;;;;;;;18.73;11.02;;;19.70;85.70;;;;;;5071264;28;20101;-84
2022/03/27 10:23:02;;;;;;;16.88;9.93;;;20.10;86.80;;;;;;5070922;28;20086;-85
2022/03/27 10:25:37;;;;;;;15.88;9.77;;;20.70;81.40;;;;;;5071534;28;20029;-85
2022/03/27 10:28:04;;;;;;;21.48;10.57;;;20.60;81.20;;;;;;5071106;28;20032;-85
2022/03/27 10:30:30;;;;;;;16.00;9.88;;;20.50;83.40;;;;;;5071241;28;20391;-85
2022/03/27 10:32:57;;;;;;;25.58;12.00;;;20.80;79.60;;;;;;5072222;28;20028;-85
2022/03/27 10:35:49;;;;;;;19.70;11.40;;;20.70;79.70;;;;;;5070825;28;20024;-84
2022/03/27 10:38:25;;;;;;;15.90;10.43;;;20.30;80.50;;;;;;5070802;28;20131;-85
2022/03/27 10:41:38;;;;;;;22.10;11.73;;;20.90;78.20;;;;;;5071300;28;20031;-89
2022/03/27 10:44:13;;;;;;;19.25;11.50;;;20.40;78.30;;;;;;5047624;28;20039;-89
2022/03/27 10:46:38;;;;;;;16.67;10.48;;;20.30;82.20;;;;;;5079913;28;20754;-89
2022/03/27 10:49:15;;;;;;;21.02;12.43;;;20.50;81.10;;;;;;5071649;28;20036;-89
2022/03/27 10:51:44;;;;;;;21.27;13.13;;;19.90;82.30;;;;;;5071738;28;20078;-89
2022/03/27 10:54:15;;;;;;;14.77;10.27;;;19.60;84.10;;;;;;5072182;28;20021;-89
2022/03/27 10:56:48;;;;;;;;;;;20.00;83.50;;;;;;5072346;28;20567;-89
2022/03/27 10:59:27;;;;;;;16.70;9.18;;;20.50;77.10;;;;;;5072128;28;19915;-90
2022/03/27 11:02:03;;;;;;;14.45;8.75;;;20.90;77.60;;;;;;5073449;28;20048;-89
2022/03/27 11:04:36;;;;;;;17.75;9.02;;;21.20;75.80;;;;;;5072103;28;20068;-90
2022/03/27 11:07:21;;;;;;;15.30;9.38;;;21.60;75.20;;;;;;5071886;28;20032;-89
2022/03/27 11:09:47;;;;;;;15.80;10.63;;;21.30;75.30;;;;;;5071986;28;20025;-90
2022/03/27 11:12:25;;;;;;;17.13;11.10;;;21.50;75.20;;;;;;5072571;28;20119;-89
2022/03/27 11:15:01;;;;;;;17.27;9.65;;;21.40;74.10;;;;;;5072684;28;20510;-89
2022/03/27 11:17:44;;;;;;;18.08;9.98;;;21.00;73.40;;;;;;5071282;28;20487;-89
2022/03/27 11:20:16;;;;;;;13.93;9.18;;;20.90;75.20;;;;;;5071874;28;20432;-89
2022/03/27 11:22:51;;;;;;;16.83;9.52;;;21.20;74.40;;;;;;5071910;28;20039;-89
2022/03/27 11:25:33;;;;;;;14.95;9.95;;;21.50;72.40;;;;;;5071149;28;20071;-88
2022/03/27 11:28:06;;;;;;;13.23;9.43;;;21.30;71.30;;;;;;5071448;28;20119;-87
2022/03/27 11:30:55;;;;;;;15.18;10.15;;;20.70;74.50;;;;;;5072211;28;20024;-83
2022/03/27 11:33:29;;;;;;;18.40;11.13;;;20.20;74.60;;;;;;5041313;28;20065;-87
2022/03/27 11:36:01;;;;;;;14.43;10.27;;;20.40;74.70;;;;;;5090749;28;20036;-87
2022/03/27 11:39:02;;;;;;;12.43;8.20;;;20.10;75.40;;;;;;5071136;28;20067;-87
2022/03/27 11:41:34;;;;;;;;;;;20.40;72.40;;;;;;5072104;28;20036;-87
2022/03/27 11:47:11;;;;;;;13.65;7.88;;;21.00;71.80;;;;;;5075384;28;20036;-89
2022/03/27 11:49:39;;;;;;;14.82;8.07;;;20.30;71.50;;;;;;5075108;28;20103;-87
2022/03/27 11:52:20;;;;;;;14.25;9.20;;;19.90;73.80;;;;;;5075696;28;20044;-88
2022/03/27 11:54:49;;;;;;;16.95;9.45;;;19.90;73.00;;;;;;5075510;28;20781;-87
2022/03/27 11:57:16;;;;;;;13.60;9.35;;;19.60;76.40;;;;;;5074949;28;20479;-87
2022/03/27 11:59:50;;;;;;;12.23;8.20;;;19.70;74.80;;;;;;5075175;28;20036;-87
2022/03/27 12:02:18;;;;;;;11.43;7.97;;;19.90;75.00;;;;;;5074192;28;20048;-88
2022/03/27 12:04:56;;;;;;;12.48;7.03;;;20.30;73.30;;;;;;5075362;28;20033;-87
2022/03/27 12:07:24;;;;;;;13.77;7.18;;;20.60;71.20;;;;;;5074646;28;20024;-87
2022/03/27 12:10:01;;;;;;;10.52;6.78;;;20.20;71.80;;;;;;5075038;28;20653;-88
2022/03/27 12:12:28;;;;;;;12.50;7.30;;;19.60;73.10;;;;;;5078627;28;20032;-87
2022/03/27 12:15:08;;;;;;;14.13;7.15;;;19.70;72.80;;;;;;5078619;28;20373;-86
2022/03/27 12:17:44;;;;;;;13.90;7.47;;;19.70;74.60;;;;;;5079900;28;20039;-87
2022/03/27 12:20:11;;;;;;;9.63;4.53;;;20.30;74.00;;;;;;5079098;28;20124;-86
2022/03/27 12:22:38;;;;;;;8.80;6.15;;;20.50;70.70;;;;;;5082341;28;20028;-88
2022/03/27 12:25:07;;;;;;;11.48;7.30;;;20.10;69.30;;;;;;5061881;28;20114;-88
2022/03/27 12:30:19;;;;;;;16.83;8.63;;;19.20;76.20;;;;;;5112250;28;20090;-88
2022/03/27 12:32:47;;;;;;;12.30;8.38;;;19.70;75.80;;;;;;5077762;28;20039;-88
2022/03/27 12:35:21;;;;;;;18.02;8.48;;;19.60;75.20;;;;;;5060770;28;20074;-88
2022/03/27 12:37:50;;;;;;;15.70;7.95;;;19.60;73.30;;;;;;5076873;28;20444;-89
2022/03/27 12:40:16;;;;;;;10.38;6.80;;;20.10;73.90;;;;;;5094404;28;20043;-88
2022/03/27 12:42:48;;;;;;;11.68;6.93;;;20.30;73.20;;;;;;5077759;28;20036;-88
2022/03/27 12:45:26;;;;;;;11.07;7.43;;;20.10;72.70;;;;;;5094443;28;20119;-88
2022/03/27 12:47:55;;;;;;;10.90;7.45;;;19.90;73.60;;;;;;5111508;28;20036;-88
2022/03/27 12:50:27;;;;;;;13.90;7.75;;;19.70;75.60;;;;;;5094247;28;20130;-88
2022/03/27 12:53:01;;;;;;;12.30;7.00;;;19.70;73.90;;;;;;5111633;28;20063;-89
2022/03/27 12:55:46;;;;;;;15.50;8.23;;;19.70;76.20;;;;;;5077473;28;20039;-89